Time,TemperatureF,DewpointF,PressureIn,WindDirection,WindDirectionDegrees,WindSpeedMPH,WindSpeedGustMPH,Humidity,HourlyPrecipIn,Conditions,Clouds,dailyrainin,SoftwareType,DateUTC
2013-04-03 00:05:00,27.2,22.1,29.64,SW,228,3.0,4.0,81,0.00,,,0.00,Wunderground v.1.15,2013-04-03 03:05:00,
2013-04-03 00:14:00,26.8,22.0,29.64,SSW,197,2.0,2.0,82,0.00,,,0.00,Wunderground v.1.15,2013-04-03 03:14:00,
2013-04-03 00:19:00,26.7,22.2,29.64,SSW,211,1.0,1.0,83,0.00,,,0.00,Wunderground v.1.15,2013-04-03 03:19:00,
2013-04-03 00:24:00,26.6,22.1,29.64,SW,220,1.0,1.0,83,0.00,,,0.00,Wunderground v.1.15,2013-04-03 03:24:00,
2013-04-03 00:29:00,26.5,22.0,29.64,SW,229,1.0,1.0,83,0.00,,,0.00,Wunderground v.1.15,2013-04-03 03:29:00,
2013-04-03 00:35:00,26.3,22.1,29.64,SW,221,1.0,1.0,84,0.00,,,0.00,Wunderground v.1.15,2013-04-03 03:35:00,
2013-04-03 00:39:00,26.2,22.0,29.64,SSW,212,1.0,2.0,84,0.00,,,0.00,Wunderground v.1.15,2013-04-03 03:39:00,
2013-04-03 00:44:00,26.4,22.2,29.64,SSW,200,2.0,2.0,84,0.00,,,0.00,Wunderground v.1.15,2013-04-03 03:44:00,
2013-04-03 00:50:00,26.6,22.4,29.63,SW,218,3.0,3.0,84,0.00,,,0.00,Wunderground v.1.15,2013-04-03 03:50:00,
2013-04-03 00:54:00,26.7,22.2,29.63,SSW,208,3.0,3.0,83,0.00,,,0.00,Wunderground v.1.15,2013-04-03 03:54:00,
2013-04-03 00:59:00,26.7,22.5,29.63,SSW,213,3.0,3.0,84,0.00,,,0.00,Wunderground v.1.15,2013-04-03 03:59:00,
2013-04-03 01:04:00,26.7,22.5,29.63,SW,217,3.0,3.0,84,0.00,,,0.00,Wunderground v.1.15,2013-04-03 04:04:00,
2013-04-03 01:09:00,26.9,22.4,29.63,SSW,199,4.0,5.0,83,0.00,,,0.00,Wunderground v.1.15,2013-04-03 04:09:00,
2013-04-03 01:14:00,27.1,22.6,29.63,SW,225,4.0,5.0,83,0.00,,,0.00,Wunderground v.1.15,2013-04-03 04:14:00,
2013-04-03 01:24:00,27.1,22.0,29.63,WSW,238,3.0,4.0,81,0.00,,,0.00,Wunderground v.1.15,2013-04-03 04:24:00,
2013-04-03 01:29:00,27.1,22.0,29.63,South,190,3.0,4.0,81,0.00,,,0.00,Wunderground v.1.15,2013-04-03 04:29:00,
2013-04-03 01:34:00,27.2,22.1,29.63,SSW,211,4.0,4.0,81,0.00,,,0.00,Wunderground v.1.15,2013-04-03 04:34:00,
2013-04-03 01:44:00,28.1,19.6,29.63,WSW,244,9.0,10.0,70,0.00,,,0.00,Wunderground v.1.15,2013-04-03 04:44:00,
2013-04-03 01:49:00,28.1,17.5,29.63,West,271,12.0,14.0,64,0.00,,,0.00,Wunderground v.1.15,2013-04-03 04:49:00,
2013-04-03 01:54:00,27.8,18.3,29.64,West,271,13.0,14.0,67,0.00,,,0.00,Wunderground v.1.15,2013-04-03 04:54:00,
2013-04-03 01:59:00,27.4,18.6,29.64,WSW,252,11.0,13.0,69,0.00,,,0.00,Wunderground v.1.15,2013-04-03 04:59:00,
2013-04-03 02:09:00,26.6,20.4,29.63,WSW,255,7.0,7.0,77,0.00,,,0.00,Wunderground v.1.15,2013-04-03 05:09:00,
2013-04-03 02:14:00,26.2,20.9,29.63,WNW,286,6.0,7.0,80,0.00,,,0.00,Wunderground v.1.15,2013-04-03 05:14:00,
2013-04-03 02:19:00,26.0,21.0,29.63,WSW,246,6.0,6.0,81,0.00,,,0.00,Wunderground v.1.15,2013-04-03 05:19:00,
2013-04-03 02:24:00,25.9,20.9,29.64,WSW,251,7.0,8.0,81,0.00,,,0.00,Wunderground v.1.15,2013-04-03 05:24:00,
2013-04-03 02:29:00,25.8,20.8,29.63,WSW,248,6.0,6.0,81,0.00,,,0.00,Wunderground v.1.15,2013-04-03 05:29:00,
2013-04-03 02:34:00,25.7,20.4,29.63,WSW,240,6.0,10.0,80,0.00,,,0.00,Wunderground v.1.15,2013-04-03 05:34:00,
2013-04-03 02:44:00,25.7,20.1,29.63,WSW,244,8.0,11.0,79,0.00,,,0.00,Wunderground v.1.15,2013-04-03 05:44:00,
2013-04-03 02:54:00,25.6,20.0,29.63,West,266,10.0,10.0,79,0.00,,,0.00,Wunderground v.1.15,2013-04-03 05:54:00,
2013-04-03 02:59:00,25.5,19.6,29.63,WSW,257,9.0,10.0,78,0.00,,,0.00,Wunderground v.1.15,2013-04-03 05:59:00,
2013-04-03 03:04:00,25.4,19.5,29.63,West,264,10.0,13.0,78,0.00,,,0.00,Wunderground v.1.15,2013-04-03 06:04:00,
2013-04-03 03:09:00,25.3,19.4,29.63,West,264,11.0,14.0,78,0.00,,,0.00,Wunderground v.1.15,2013-04-03 06:09:00,
2013-04-03 03:14:00,25.2,19.6,29.63,WSW,256,12.0,14.0,79,0.00,,,0.00,Wunderground v.1.15,2013-04-03 06:14:00,
2013-04-03 03:24:00,25.0,19.7,29.63,West,273,10.0,11.0,80,0.00,,,0.00,Wunderground v.1.15,2013-04-03 06:24:00,
2013-04-03 03:34:00,24.8,19.5,29.63,West,259,9.0,9.0,80,0.00,,,0.00,Wunderground v.1.15,2013-04-03 06:34:00,
2013-04-03 03:39:00,24.7,19.4,29.63,WSW,240,9.0,9.0,80,0.00,,,0.00,Wunderground v.1.15,2013-04-03 06:39:00,
2013-04-03 03:44:00,24.7,19.7,29.63,WSW,240,8.0,10.0,81,0.00,,,0.00,Wunderground v.1.15,2013-04-03 06:44:00,
2013-04-03 03:49:00,24.7,19.4,29.63,WSW,248,8.0,12.0,80,0.00,,,0.00,Wunderground v.1.15,2013-04-03 06:49:00,
2013-04-03 03:59:00,24.7,18.2,29.63,WSW,247,9.0,9.0,76,0.00,,,0.00,Wunderground v.1.15,2013-04-03 06:59:00,
2013-04-03 04:04:00,24.7,18.2,29.63,WSW,242,8.0,9.0,76,0.00,,,0.00,Wunderground v.1.15,2013-04-03 07:04:00,
2013-04-03 04:14:00,24.8,16.7,29.62,SW,230,11.0,11.0,71,0.00,,,0.00,Wunderground v.1.15,2013-04-03 07:14:00,
2013-04-03 04:24:00,24.8,16.7,29.62,WSW,249,10.0,12.0,71,0.00,,,0.00,Wunderground v.1.15,2013-04-03 07:24:00,
2013-04-03 04:34:00,24.8,16.1,29.62,West,259,11.0,11.0,69,0.00,,,0.00,Wunderground v.1.15,2013-04-03 07:34:00,
2013-04-03 04:44:00,24.8,15.7,29.62,West,265,11.0,16.0,68,0.00,,,0.00,Wunderground v.1.15,2013-04-03 07:44:00,
2013-04-03 04:49:00,24.8,14.3,29.62,WSW,252,12.0,12.0,64,0.00,,,0.00,Wunderground v.1.15,2013-04-03 07:49:00,
2013-04-03 04:54:00,24.8,14.3,29.62,WSW,254,13.0,13.0,64,0.00,,,0.00,Wunderground v.1.15,2013-04-03 07:54:00,
2013-04-03 04:59:00,24.7,13.5,29.62,SW,236,12.0,14.0,62,0.00,,,0.00,Wunderground v.1.15,2013-04-03 07:59:00,
2013-04-03 05:04:00,24.6,13.4,29.62,West,261,13.0,14.0,62,0.00,,,0.00,Wunderground v.1.15,2013-04-03 08:04:00,
2013-04-03 05:09:00,24.5,13.0,29.62,WSW,239,12.0,13.0,61,0.00,,,0.00,Wunderground v.1.15,2013-04-03 08:09:00,
2013-04-03 05:14:00,24.4,13.2,29.62,WSW,257,13.0,15.0,62,0.00,,,0.00,Wunderground v.1.15,2013-04-03 08:14:00,
2013-04-03 05:24:00,24.4,13.2,29.62,West,267,12.0,12.0,62,0.00,,,0.00,Wunderground v.1.15,2013-04-03 08:24:00,
2013-04-03 05:29:00,24.3,13.5,29.62,West,262,11.0,11.0,63,0.00,,,0.00,Wunderground v.1.15,2013-04-03 08:29:00,
2013-04-03 05:34:00,24.3,13.5,29.61,SW,223,11.0,16.0,63,0.00,,,0.00,Wunderground v.1.15,2013-04-03 08:34:00,
2013-04-03 05:39:00,24.2,13.0,29.61,WNW,293,12.0,12.0,62,0.00,,,0.00,Wunderground v.1.15,2013-04-03 08:39:00,
2013-04-03 05:44:00,24.0,12.1,29.61,WSW,250,12.0,16.0,60,0.00,,,0.00,Wunderground v.1.15,2013-04-03 08:44:00,
2013-04-03 05:54:00,23.8,12.3,29.61,West,259,9.0,10.0,61,0.00,,,0.00,Wunderground v.1.15,2013-04-03 08:54:00,
2013-04-03 06:04:00,23.8,11.9,29.61,WSW,241,11.0,15.0,60,0.00,,,0.00,Wunderground v.1.15,2013-04-03 09:04:00,
2013-04-03 06:14:00,23.5,12.0,29.61,WSW,258,9.0,11.0,61,0.00,,,0.00,Wunderground v.1.15,2013-04-03 09:14:00,
2013-04-03 06:18:00,23.4,11.5,29.61,WSW,255,10.0,10.0,60,0.00,,,0.00,Wunderground v.1.15,2013-04-03 09:18:00,
2013-04-03 06:23:00,23.3,11.4,29.61,WSW,254,13.0,13.0,60,0.00,,,0.00,Wunderground v.1.15,2013-04-03 09:23:00,
2013-04-03 06:28:00,23.3,11.4,29.61,West,275,13.0,13.0,60,0.00,,,0.00,Wunderground v.1.15,2013-04-03 09:28:00,
2013-04-03 06:34:00,23.3,12.2,29.61,WSW,243,12.0,16.0,62,0.00,,,0.00,Wunderground v.1.15,2013-04-03 09:34:00,
2013-04-03 06:39:00,23.4,12.3,29.61,SW,236,12.0,12.0,62,0.00,,,0.00,Wunderground v.1.15,2013-04-03 09:39:00,
2013-04-03 06:44:00,23.3,12.2,29.61,WSW,248,11.0,12.0,62,0.00,,,0.00,Wunderground v.1.15,2013-04-03 09:44:00,
2013-04-03 06:48:00,23.1,12.0,29.61,WSW,247,10.0,10.0,62,0.00,,,0.00,Wunderground v.1.15,2013-04-03 09:48:00,
2013-04-03 06:54:00,23.1,12.0,29.62,West,269,12.0,12.0,62,0.00,,,0.00,Wunderground v.1.15,2013-04-03 09:54:00,
2013-04-03 06:59:00,23.1,12.0,29.61,WSW,258,12.0,17.0,62,0.00,,,0.00,Wunderground v.1.15,2013-04-03 09:59:00,
2013-04-03 07:04:00,23.0,11.9,29.61,West,262,12.0,17.0,62,0.00,,,0.00,Wunderground v.1.15,2013-04-03 10:04:00,
2013-04-03 07:09:00,23.0,11.2,29.62,WSW,243,13.0,13.0,60,0.00,,,0.00,Wunderground v.1.15,2013-04-03 10:09:00,
2013-04-03 07:13:00,22.9,10.7,29.62,West,261,14.0,15.0,59,0.00,,,0.00,Wunderground v.1.15,2013-04-03 10:13:00,
2013-04-03 07:18:00,22.9,10.7,29.62,West,265,14.0,15.0,59,0.00,,,0.00,Wunderground v.1.15,2013-04-03 10:18:00,
2013-04-03 07:23:00,22.9,11.4,29.62,West,259,13.0,15.0,61,0.00,,,0.00,Wunderground v.1.15,2013-04-03 10:23:00,
2013-04-03 07:28:00,22.9,11.1,29.62,West,265,12.0,12.0,60,0.00,,,0.00,Wunderground v.1.15,2013-04-03 10:28:00,
2013-04-03 07:38:00,22.8,9.8,29.63,West,271,14.0,19.0,57,0.00,,,0.00,Wunderground v.1.15,2013-04-03 10:38:00,
2013-04-03 07:43:00,22.9,9.5,29.63,WSW,250,17.0,19.0,56,0.00,,,0.00,Wunderground v.1.15,2013-04-03 10:43:00,
2013-04-03 07:48:00,22.7,8.5,29.62,West,278,17.0,17.0,54,0.00,,,0.00,Wunderground v.1.15,2013-04-03 10:48:00,
2013-04-03 07:53:00,22.5,8.3,29.62,West,263,16.0,18.0,54,0.00,,,0.00,Wunderground v.1.15,2013-04-03 10:53:00,
2013-04-03 07:58:00,22.5,8.7,29.63,WSW,240,15.0,15.0,55,0.00,,,0.00,Wunderground v.1.15,2013-04-03 10:58:00,
2013-04-03 08:08:00,22.7,9.7,29.63,SW,236,14.0,14.0,57,0.00,,,0.00,Wunderground v.1.15,2013-04-03 11:08:00,
2013-04-03 08:13:00,22.7,9.7,29.63,WSW,238,13.0,14.0,57,0.00,,,0.00,Wunderground v.1.15,2013-04-03 11:13:00,
2013-04-03 08:18:00,22.5,9.5,29.63,WSW,245,12.0,12.0,57,0.00,,,0.00,Wunderground v.1.15,2013-04-03 11:18:00,
2013-04-03 08:23:00,22.4,9.8,29.63,WSW,237,11.0,12.0,58,0.00,,,0.00,Wunderground v.1.15,2013-04-03 11:23:00,
2013-04-03 08:28:00,22.3,9.7,29.63,WSW,246,11.0,13.0,58,0.00,,,0.00,Wunderground v.1.15,2013-04-03 11:28:00,
2013-04-03 08:38:00,22.6,10.0,29.63,WSW,245,12.0,13.0,58,0.00,,,0.00,Wunderground v.1.15,2013-04-03 11:38:00,
2013-04-03 08:43:00,22.8,9.8,29.63,West,267,13.0,13.0,57,0.00,,,0.00,Wunderground v.1.15,2013-04-03 11:43:00,
2013-04-03 08:48:00,23.0,9.2,29.63,WSW,254,12.0,14.0,55,0.00,,,0.00,Wunderground v.1.15,2013-04-03 11:48:00,
2013-04-03 08:53:00,23.0,9.6,29.63,WSW,249,12.0,15.0,56,0.00,,,0.00,Wunderground v.1.15,2013-04-03 11:53:00,
2013-04-03 08:58:00,22.8,9.4,29.63,West,266,13.0,13.0,56,0.00,,,0.00,Wunderground v.1.15,2013-04-03 11:58:00,
2013-04-03 09:08:00,22.8,9.8,29.63,WNW,294,12.0,12.0,57,0.00,,,0.00,Wunderground v.1.15,2013-04-03 12:08:00,
2013-04-03 09:13:00,22.8,9.8,29.63,WSW,240,13.0,13.0,57,0.00,,,0.00,Wunderground v.1.15,2013-04-03 12:13:00,
2013-04-03 09:18:00,23.3,11.1,29.63,West,267,12.0,12.0,59,0.00,,,0.00,Wunderground v.1.15,2013-04-03 12:18:00,
2013-04-03 09:23:00,23.7,11.4,29.63,West,279,11.0,12.0,59,0.00,,,0.00,Wunderground v.1.15,2013-04-03 12:23:00,
2013-04-03 09:33:00,22.6,11.2,29.63,WSW,242,13.0,13.0,61,0.00,,,0.00,Wunderground v.1.15,2013-04-03 12:33:00,
2013-04-03 09:38:00,22.5,11.8,29.63,WNW,294,12.0,19.0,63,0.00,,,0.00,Wunderground v.1.15,2013-04-03 12:38:00,
2013-04-03 09:43:00,22.8,12.8,29.64,NW,309,13.0,19.0,65,0.00,,,0.00,Wunderground v.1.15,2013-04-03 12:43:00,
2013-04-03 09:48:00,22.9,12.2,29.64,West,261,13.0,13.0,63,0.00,,,0.00,Wunderground v.1.15,2013-04-03 12:48:00,
2013-04-03 09:53:00,23.0,12.3,29.64,WNW,288,12.0,19.0,63,0.00,,,0.00,Wunderground v.1.15,2013-04-03 12:53:00,
2013-04-03 10:03:00,22.1,12.8,29.64,WSW,240,13.0,14.0,67,0.00,,,0.00,Wunderground v.1.15,2013-04-03 13:03:00,
2013-04-03 10:08:00,22.2,12.2,29.64,WSW,252,12.0,12.0,65,0.00,,,0.00,Wunderground v.1.15,2013-04-03 13:08:00,
2013-04-03 10:13:00,22.0,11.3,29.64,West,270,13.0,13.0,63,0.00,,,0.00,Wunderground v.1.15,2013-04-03 13:13:00,
2013-04-03 10:18:00,22.5,11.4,29.64,WNW,292,13.0,13.0,62,0.00,,,0.00,Wunderground v.1.15,2013-04-03 13:18:00,
2013-04-03 10:23:00,22.9,11.8,29.64,West,264,12.0,17.0,62,0.00,,,0.00,Wunderground v.1.15,2013-04-03 13:23:00,
2013-04-03 10:28:00,22.7,11.6,29.64,WSW,257,13.0,13.0,62,0.00,,,0.00,Wunderground v.1.15,2013-04-03 13:28:00,
2013-04-03 10:38:00,22.7,9.7,29.64,WSW,250,13.0,13.0,57,0.00,,,0.00,Wunderground v.1.15,2013-04-03 13:38:00,
2013-04-03 10:43:00,22.7,10.9,29.64,West,275,13.0,13.0,60,0.00,,,0.00,Wunderground v.1.15,2013-04-03 13:43:00,
2013-04-03 10:48:00,22.6,10.4,29.64,WSW,243,12.0,12.0,59,0.00,,,0.00,Wunderground v.1.15,2013-04-03 13:48:00,
2013-04-03 10:53:00,22.2,8.9,29.64,WSW,240,14.0,18.0,56,0.00,,,0.00,Wunderground v.1.15,2013-04-03 13:53:00,
2013-04-03 10:58:00,22.0,9.5,29.64,WNW,285,14.0,14.0,58,0.00,,,0.00,Wunderground v.1.15,2013-04-03 13:58:00,
2013-04-03 11:03:00,22.1,8.4,29.64,SW,221,14.0,14.0,55,0.00,,,0.00,Wunderground v.1.15,2013-04-03 14:03:00,
2013-04-03 11:08:00,22.4,8.2,29.63,West,281,13.0,13.0,54,0.00,,,0.00,Wunderground v.1.15,2013-04-03 14:08:00,
2013-04-03 11:13:00,22.5,9.9,29.64,SW,236,14.0,14.0,58,0.00,,,0.00,Wunderground v.1.15,2013-04-03 14:13:00,
2013-04-03 11:23:00,23.1,10.5,29.64,West,276,12.0,13.0,58,0.00,,,0.00,Wunderground v.1.15,2013-04-03 14:23:00,
2013-04-03 11:28:00,22.6,10.0,29.64,WSW,250,13.0,13.0,58,0.00,,,0.00,Wunderground v.1.15,2013-04-03 14:28:00,
2013-04-03 11:33:00,23.3,10.7,29.64,WSW,254,13.0,13.0,58,0.00,,,0.00,Wunderground v.1.15,2013-04-03 14:33:00,
2013-04-03 11:38:00,23.7,10.7,29.63,West,269,12.0,12.0,57,0.00,,,0.00,Wunderground v.1.15,2013-04-03 14:38:00,
2013-04-03 11:48:00,24.3,10.8,29.63,West,261,14.0,20.0,56,0.00,,,0.00,Wunderground v.1.15,2013-04-03 14:48:00,
2013-04-03 11:53:00,24.5,11.4,29.63,West,260,12.0,20.0,57,0.00,,,0.00,Wunderground v.1.15,2013-04-03 14:53:00,
2013-04-03 11:58:00,23.6,12.5,29.63,West,260,12.0,12.0,62,0.00,,,0.00,Wunderground v.1.15,2013-04-03 14:58:00,
2013-04-03 12:03:00,23.5,12.4,29.63,NW,325,12.0,12.0,62,0.00,,,0.00,Wunderground v.1.15,2013-04-03 15:03:00,
2013-04-03 12:08:00,23.5,13.1,29.62,WSW,252,12.0,12.0,64,0.00,,,0.00,Wunderground v.1.15,2013-04-03 15:08:00,
2013-04-03 12:13:00,23.3,12.9,29.63,West,259,14.0,20.0,64,0.00,,,0.00,Wunderground v.1.15,2013-04-03 15:13:00,
2013-04-03 12:18:00,23.9,13.8,29.62,SW,221,13.0,13.0,65,0.00,,,0.00,Wunderground v.1.15,2013-04-03 15:18:00,
2013-04-03 12:23:00,23.9,13.8,29.62,SW,216,12.0,13.0,65,0.00,,,0.00,Wunderground v.1.15,2013-04-03 15:23:00,
2013-04-03 12:28:00,24.6,14.1,29.62,SW,225,11.0,18.0,64,0.00,,,0.00,Wunderground v.1.15,2013-04-03 15:28:00,
2013-04-03 12:33:00,24.6,14.9,29.62,West,266,12.0,18.0,66,0.00,,,0.00,Wunderground v.1.15,2013-04-03 15:33:00,
2013-04-03 12:43:00,24.8,14.0,29.62,WNW,288,10.0,12.0,63,0.00,,,0.00,Wunderground v.1.15,2013-04-03 15:43:00,
2013-04-03 12:48:00,25.2,13.6,29.62,WSW,253,10.0,10.0,61,0.00,,,0.00,Wunderground v.1.15,2013-04-03 15:48:00,
2013-04-03 12:53:00,23.9,13.8,29.62,West,277,11.0,16.0,65,0.00,,,0.00,Wunderground v.1.15,2013-04-03 15:53:00,
2013-04-03 12:58:00,23.7,14.7,29.62,WSW,246,13.0,17.0,68,0.00,,,0.00,Wunderground v.1.15,2013-04-03 15:58:00,
2013-04-03 13:03:00,24.5,14.4,29.62,WNW,302,11.0,17.0,65,0.00,,,0.00,Wunderground v.1.15,2013-04-03 16:03:00,
2013-04-03 13:08:00,24.2,15.2,29.62,WSW,255,10.0,10.0,68,0.00,,,0.00,Wunderground v.1.15,2013-04-03 16:08:00,
2013-04-03 13:13:00,24.2,15.8,29.62,West,270,9.0,10.0,70,0.00,,,0.00,Wunderground v.1.15,2013-04-03 16:13:00,
2013-04-03 13:18:00,24.5,15.4,29.61,WSW,257,10.0,10.0,68,0.00,,,0.00,Wunderground v.1.15,2013-04-03 16:18:00,
2013-04-03 13:23:00,24.5,15.8,29.62,WSW,256,11.0,11.0,69,0.00,,,0.00,Wunderground v.1.15,2013-04-03 16:23:00,
2013-04-03 13:28:00,24.7,15.6,29.61,WNW,284,11.0,11.0,68,0.00,,,0.00,Wunderground v.1.15,2013-04-03 16:28:00,
2013-04-03 13:33:00,24.6,15.2,29.61,WNW,296,11.0,11.0,67,0.00,,,0.00,Wunderground v.1.15,2013-04-03 16:33:00,
2013-04-03 13:48:00,25.4,15.3,29.61,WNW,294,13.0,13.0,65,0.00,,,0.00,Wunderground v.1.15,2013-04-03 16:48:00,
2013-04-03 13:53:00,25.5,15.0,29.61,WSW,249,10.0,13.0,64,0.00,,,0.00,Wunderground v.1.15,2013-04-03 16:53:00,
2013-04-03 13:58:00,25.2,14.7,29.61,West,275,12.0,12.0,64,0.00,,,0.00,Wunderground v.1.15,2013-04-03 16:58:00,
2013-04-03 14:03:00,25.6,13.6,29.61,West,261,11.0,13.0,60,0.00,,,0.00,Wunderground v.1.15,2013-04-03 17:03:00,
2013-04-03 14:08:00,26.3,14.3,29.61,SW,217,10.0,17.0,60,0.00,,,0.00,Wunderground v.1.15,2013-04-03 17:08:00,
2013-04-03 14:13:00,26.1,13.3,29.61,WSW,257,12.0,17.0,58,0.00,,,0.00,Wunderground v.1.15,2013-04-03 17:13:00,
2013-04-03 14:18:00,26.1,14.1,29.61,WSW,244,13.0,13.0,60,0.00,,,0.00,Wunderground v.1.15,2013-04-03 17:18:00,
2013-04-03 14:28:00,26.5,14.1,29.61,WSW,246,10.0,20.0,59,0.00,,,0.00,Wunderground v.1.15,2013-04-03 17:28:00,
2013-04-03 14:33:00,26.1,12.5,29.61,West,265,12.0,20.0,56,0.00,,,0.00,Wunderground v.1.15,2013-04-03 17:33:00,
2013-04-03 14:38:00,26.8,14.0,29.61,West,277,13.0,13.0,58,0.00,,,0.00,Wunderground v.1.15,2013-04-03 17:38:00,
2013-04-03 14:43:00,27.1,14.7,29.61,West,269,12.0,13.0,59,0.00,,,0.00,Wunderground v.1.15,2013-04-03 17:43:00,
2013-04-03 14:48:00,27.2,14.0,29.61,SW,236,11.0,11.0,57,0.00,,,0.00,Wunderground v.1.15,2013-04-03 17:48:00,
2013-04-03 14:53:00,27.3,13.7,29.61,West,275,11.0,18.0,56,0.00,,,0.00,Wunderground v.1.15,2013-04-03 17:53:00,
2013-04-03 14:58:00,27.5,14.2,29.61,WSW,241,12.0,13.0,57,0.00,,,0.00,Wunderground v.1.15,2013-04-03 17:58:00,
2013-04-03 15:03:00,28.4,14.3,29.61,West,269,11.0,13.0,55,0.00,,,0.00,Wunderground v.1.15,2013-04-03 18:03:00,
2013-04-03 15:08:00,28.4,15.1,29.61,West,281,10.0,12.0,57,0.00,,,0.00,Wunderground v.1.15,2013-04-03 18:08:00,
2013-04-03 15:13:00,28.6,14.5,29.61,WSW,257,11.0,12.0,55,0.00,,,0.00,Wunderground v.1.15,2013-04-03 18:13:00,
2013-04-03 15:18:00,28.0,13.5,29.61,WSW,258,13.0,13.0,54,0.00,,,0.00,Wunderground v.1.15,2013-04-03 18:18:00,
2013-04-03 15:28:00,28.1,13.6,29.61,WNW,288,15.0,15.0,54,0.00,,,0.00,Wunderground v.1.15,2013-04-03 18:28:00,
2013-04-03 15:33:00,28.3,13.8,29.61,WSW,257,14.0,15.0,54,0.00,,,0.00,Wunderground v.1.15,2013-04-03 18:33:00,
2013-04-03 15:43:00,29.0,15.7,29.61,WSW,253,13.0,13.0,57,0.00,,,0.00,Wunderground v.1.15,2013-04-03 18:43:00,
2013-04-03 15:48:00,29.8,15.6,29.61,West,277,10.0,10.0,55,0.00,,,0.00,Wunderground v.1.15,2013-04-03 18:48:00,
2013-04-03 15:53:00,29.6,14.1,29.61,SW,236,10.0,10.0,52,0.00,,,0.00,Wunderground v.1.15,2013-04-03 18:53:00,
2013-04-03 15:58:00,29.4,14.8,29.60,West,274,11.0,15.0,54,0.00,,,0.00,Wunderground v.1.15,2013-04-03 18:58:00,
2013-04-03 16:03:00,28.9,14.3,29.60,WSW,252,11.0,15.0,54,0.00,,,0.00,Wunderground v.1.15,2013-04-03 19:03:00,
2013-04-03 16:08:00,29.2,15.0,29.60,West,281,11.0,11.0,55,0.00,,,0.00,Wunderground v.1.15,2013-04-03 19:08:00,
2013-04-03 16:13:00,29.4,15.2,29.61,WSW,253,10.0,13.0,55,0.00,,,0.00,Wunderground v.1.15,2013-04-03 19:13:00,
2013-04-03 16:18:00,29.3,15.5,29.61,WSW,255,11.0,11.0,56,0.00,,,0.00,Wunderground v.1.15,2013-04-03 19:18:00,
2013-04-03 16:23:00,29.2,15.8,29.61,West,273,11.0,11.0,57,0.00,,,0.00,Wunderground v.1.15,2013-04-03 19:23:00,
2013-04-03 16:28:00,29.2,15.4,29.61,WSW,257,11.0,11.0,56,0.00,,,0.00,Wunderground v.1.15,2013-04-03 19:28:00,
2013-04-03 16:33:00,29.6,16.6,29.61,WSW,243,11.0,11.0,58,0.00,,,0.00,Wunderground v.1.15,2013-04-03 19:33:00,
2013-04-03 16:38:00,29.4,14.8,29.61,WSW,257,12.0,16.0,54,0.00,,,0.00,Wunderground v.1.15,2013-04-03 19:38:00,
2013-04-03 16:43:00,29.6,15.8,29.61,WSW,248,13.0,17.0,56,0.00,,,0.00,Wunderground v.1.15,2013-04-03 19:43:00,
2013-04-03 16:48:00,29.8,15.2,29.61,WNW,286,12.0,16.0,54,0.00,,,0.00,Wunderground v.1.15,2013-04-03 19:48:00,
2013-04-03 16:53:00,29.8,16.0,29.61,WSW,255,11.0,16.0,56,0.00,,,0.00,Wunderground v.1.15,2013-04-03 19:53:00,
2013-04-03 17:03:00,29.7,16.7,29.61,WSW,250,10.0,13.0,58,0.00,,,0.00,Wunderground v.1.15,2013-04-03 20:03:00,
2013-04-03 17:08:00,29.9,16.5,29.61,WNW,288,9.0,10.0,57,0.00,,,0.00,Wunderground v.1.15,2013-04-03 20:08:00,
2013-04-03 17:13:00,29.7,15.9,29.61,West,273,9.0,10.0,56,0.00,,,0.00,Wunderground v.1.15,2013-04-03 20:13:00,
2013-04-03 17:18:00,29.7,16.7,29.61,West,266,10.0,10.0,58,0.00,,,0.00,Wunderground v.1.15,2013-04-03 20:18:00,
2013-04-03 17:23:00,29.8,16.0,29.61,West,275,10.0,10.0,56,0.00,,,0.00,Wunderground v.1.15,2013-04-03 20:23:00,
2013-04-03 17:33:00,29.9,16.5,29.62,WSW,244,10.0,17.0,57,0.00,,,0.00,Wunderground v.1.15,2013-04-03 20:33:00,
2013-04-03 17:38:00,30.1,16.7,29.62,West,262,11.0,17.0,57,0.00,,,0.00,Wunderground v.1.15,2013-04-03 20:38:00,
2013-04-03 17:43:00,30.1,16.7,29.62,WNW,286,9.0,17.0,57,0.00,,,0.00,Wunderground v.1.15,2013-04-03 20:43:00,
2013-04-03 17:48:00,30.1,17.1,29.62,West,261,8.0,8.0,58,0.00,,,0.00,Wunderground v.1.15,2013-04-03 20:48:00,
2013-04-03 17:53:00,30.1,17.1,29.62,WNW,284,8.0,8.0,58,0.00,,,0.00,Wunderground v.1.15,2013-04-03 20:53:00,
2013-04-03 17:58:00,29.9,16.9,29.62,WSW,255,9.0,9.0,58,0.00,,,0.00,Wunderground v.1.15,2013-04-03 20:58:00,
2013-04-03 18:03:00,29.9,16.9,29.62,WSW,245,10.0,12.0,58,0.00,,,0.00,Wunderground v.1.15,2013-04-03 21:03:00,
2013-04-03 18:08:00,29.8,17.2,29.63,WSW,253,10.0,10.0,59,0.00,,,0.00,Wunderground v.1.15,2013-04-03 21:08:00,
2013-04-03 18:13:00,29.8,18.0,29.63,WSW,256,10.0,10.0,61,0.00,,,0.00,Wunderground v.1.15,2013-04-03 21:13:00,
2013-04-03 18:18:00,29.8,18.0,29.63,WSW,257,8.0,10.0,61,0.00,,,0.00,Wunderground v.1.15,2013-04-03 21:18:00,
2013-04-03 18:23:00,29.8,18.0,29.63,WNW,300,9.0,10.0,61,0.00,,,0.00,Wunderground v.1.15,2013-04-03 21:23:00,
2013-04-03 18:28:00,29.8,18.0,29.63,WSW,257,8.0,8.0,61,0.00,,,0.00,Wunderground v.1.15,2013-04-03 21:28:00,
2013-04-03 18:33:00,29.9,17.7,29.63,WSW,257,7.0,8.0,60,0.00,,,0.00,Wunderground v.1.15,2013-04-03 21:33:00,
2013-04-03 18:38:00,29.9,17.7,29.63,WSW,254,7.0,7.0,60,0.00,,,0.00,Wunderground v.1.15,2013-04-03 21:38:00,
2013-04-03 18:48:00,30.1,18.3,29.63,WSW,252,8.0,10.0,61,0.00,,,0.00,Wunderground v.1.15,2013-04-03 21:48:00,
2013-04-03 18:53:00,30.1,17.9,29.63,WSW,238,7.0,10.0,60,0.00,,,0.00,Wunderground v.1.15,2013-04-03 21:53:00,
2013-04-03 18:58:00,30.2,18.0,29.63,West,268,6.0,7.0,60,0.00,,,0.00,Wunderground v.1.15,2013-04-03 21:58:00,
2013-04-03 19:03:00,30.2,18.0,29.63,SW,221,6.0,8.0,60,0.00,,,0.00,Wunderground v.1.15,2013-04-03 22:03:00,
2013-04-03 19:08:00,30.3,17.3,29.63,West,272,8.0,8.0,58,0.00,,,0.00,Wunderground v.1.15,2013-04-03 22:08:00,
2013-04-03 19:13:00,30.4,17.0,29.63,WSW,257,8.0,8.0,57,0.00,,,0.00,Wunderground v.1.15,2013-04-03 22:13:00,
2013-04-03 19:18:00,30.4,17.8,29.64,WSW,246,8.0,8.0,59,0.00,,,0.00,Wunderground v.1.15,2013-04-03 22:18:00,
2013-04-03 19:23:00,30.5,17.5,29.64,West,263,8.0,8.0,58,0.00,,,0.00,Wunderground v.1.15,2013-04-03 22:23:00,
2013-04-03 19:28:00,30.5,17.5,29.64,WSW,257,8.0,8.0,58,0.00,,,0.00,Wunderground v.1.15,2013-04-03 22:28:00,
2013-04-03 19:38:00,30.6,17.6,29.65,WSW,245,9.0,9.0,58,0.00,,,0.00,Wunderground v.1.15,2013-04-03 22:38:00,
2013-04-03 19:48:00,30.5,18.3,29.65,WSW,255,6.0,8.0,60,0.00,,,0.00,Wunderground v.1.15,2013-04-03 22:48:00,
2013-04-03 19:53:00,30.4,17.8,29.65,West,267,7.0,8.0,59,0.00,,,0.00,Wunderground v.1.15,2013-04-03 22:53:00,
2013-04-03 19:58:00,30.5,18.3,29.65,West,271,8.0,8.0,60,0.00,,,0.00,Wunderground v.1.15,2013-04-03 22:58:00,
2013-04-03 20:03:00,30.5,18.3,29.65,West,277,8.0,8.0,60,0.00,,,0.00,Wunderground v.1.15,2013-04-03 23:03:00,
2013-04-03 20:08:00,30.6,18.7,29.65,SW,232,7.0,7.0,61,0.00,,,0.00,Wunderground v.1.15,2013-04-03 23:08:00,
2013-04-03 20:13:00,30.6,18.3,29.66,WSW,257,7.0,9.0,60,0.00,,,0.00,Wunderground v.1.15,2013-04-03 23:13:00,
2013-04-03 20:28:00,30.7,18.4,29.66,WSW,243,7.0,12.0,60,0.00,,,0.00,Wunderground v.1.15,2013-04-03 23:28:00,
2013-04-03 20:33:00,30.8,18.5,29.67,West,265,8.0,12.0,60,0.00,,,0.00,Wunderground v.1.15,2013-04-03 23:33:00,
2013-04-03 20:38:00,30.8,18.5,29.66,West,267,8.0,9.0,60,0.00,,,0.00,Wunderground v.1.15,2013-04-03 23:38:00,
2013-04-03 20:43:00,30.8,18.9,29.67,West,269,8.0,9.0,61,0.00,,,0.00,Wunderground v.1.15,2013-04-03 23:43:00,
2013-04-03 20:53:00,30.8,19.3,29.67,WSW,240,7.0,8.0,62,0.00,,,0.00,Wunderground v.1.15,2013-04-03 23:53:00,
2013-04-03 21:23:00,30.8,19.3,29.69,WSW,248,5.0,8.0,62,0.00,,,0.00,Wunderground v.1.15,2013-04-04 00:23:00,
2013-04-03 21:28:00,30.8,19.7,29.69,West,260,6.0,7.0,63,0.00,,,0.00,Wunderground v.1.15,2013-04-04 00:28:00,
2013-04-03 21:33:00,30.6,19.5,29.69,WNW,284,6.0,7.0,63,0.00,,,0.00,Wunderground v.1.15,2013-04-04 00:33:00,
2013-04-03 21:43:00,30.5,19.4,29.69,West,259,5.0,8.0,63,0.00,,,0.00,Wunderground v.1.15,2013-04-04 00:43:00,
2013-04-03 21:48:00,30.6,19.5,29.69,West,260,6.0,7.0,63,0.00,,,0.00,Wunderground v.1.15,2013-04-04 00:48:00,
2013-04-03 21:53:00,30.6,19.5,29.70,West,260,6.0,7.0,63,0.00,,,0.00,Wunderground v.1.15,2013-04-04 00:53:00,
2013-04-03 21:58:00,30.7,20.0,29.70,WSW,254,7.0,7.0,64,0.00,,,0.00,Wunderground v.1.15,2013-04-04 00:58:00,
2013-04-03 22:03:00,30.7,20.0,29.70,West,264,6.0,7.0,64,0.00,,,0.00,Wunderground v.1.15,2013-04-04 01:03:00,
2013-04-03 22:08:00,30.8,19.7,29.70,West,261,7.0,7.0,63,0.00,,,0.00,Wunderground v.1.15,2013-04-04 01:08:00,
2013-04-03 22:13:00,30.7,19.6,29.70,WSW,246,7.0,10.0,63,0.00,,,0.00,Wunderground v.1.15,2013-04-04 01:13:00,
2013-04-03 22:18:00,30.7,19.6,29.70,WNW,298,6.0,6.0,63,0.00,,,0.00,Wunderground v.1.15,2013-04-04 01:18:00,
2013-04-03 22:23:00,30.7,19.2,29.71,West,261,7.0,8.0,62,0.00,,,0.00,Wunderground v.1.15,2013-04-04 01:23:00,
2013-04-03 22:28:00,30.7,19.2,29.71,WSW,255,8.0,8.0,62,0.00,,,0.00,Wunderground v.1.15,2013-04-04 01:28:00,
2013-04-03 22:33:00,30.7,18.8,29.71,WSW,245,8.0,12.0,61,0.00,,,0.00,Wunderground v.1.15,2013-04-04 01:33:00,
2013-04-03 22:38:00,30.7,18.8,29.71,WSW,254,8.0,14.0,61,0.00,,,0.00,Wunderground v.1.15,2013-04-04 01:38:00,
2013-04-03 22:43:00,30.7,18.8,29.71,WNW,284,9.0,14.0,61,0.00,,,0.00,Wunderground v.1.15,2013-04-04 01:43:00,
2013-04-03 22:48:00,30.5,19.0,29.71,SW,235,8.0,11.0,62,0.00,,,0.00,Wunderground v.1.15,2013-04-04 01:48:00,
2013-04-03 22:53:00,30.3,18.5,29.71,West,265,9.0,11.0,61,0.00,,,0.00,Wunderground v.1.15,2013-04-04 01:53:00,
2013-04-03 22:58:00,30.2,18.7,29.71,West,262,9.0,14.0,62,0.00,,,0.00,Wunderground v.1.15,2013-04-04 01:58:00,
2013-04-03 23:03:00,30.0,18.5,29.71,West,274,9.0,14.0,62,0.00,,,0.00,Wunderground v.1.15,2013-04-04 02:03:00,
2013-04-03 23:08:00,29.8,18.7,29.71,WSW,248,8.0,8.0,63,0.00,,,0.00,Wunderground v.1.15,2013-04-04 02:08:00,
2013-04-03 23:13:00,29.7,18.6,29.71,WSW,252,7.0,8.0,63,0.00,,,0.00,Wunderground v.1.15,2013-04-04 02:13:00,
2013-04-03 23:19:00,29.6,18.5,29.72,WSW,250,7.0,10.0,63,0.00,,,0.00,Wunderground v.1.15,2013-04-04 02:19:00,
2013-04-03 23:24:00,29.5,19.2,29.72,WSW,257,7.0,10.0,65,0.00,,,0.00,Wunderground v.1.15,2013-04-04 02:24:00,
2013-04-03 23:28:00,29.3,19.0,29.72,WSW,252,6.0,8.0,65,0.00,,,0.00,Wunderground v.1.15,2013-04-04 02:28:00,
2013-04-03 23:34:00,29.2,18.9,29.72,West,259,6.0,8.0,65,0.00,,,0.00,Wunderground v.1.15,2013-04-04 02:34:00,
2013-04-03 23:39:00,29.1,18.8,29.72,West,259,6.0,12.0,65,0.00,,,0.00,Wunderground v.1.15,2013-04-04 02:39:00,
2013-04-03 23:48:00,29.0,18.7,29.72,WSW,252,8.0,10.0,65,0.00,,,0.00,Wunderground v.1.15,2013-04-04 02:48:00,
2013-04-03 23:53:00,28.9,18.2,29.72,West,263,8.0,10.0,64,0.00,,,0.00,Wunderground v.1.15,2013-04-04 02:53:00,